Latest Weather Observations for Mount Lofty

IDS60901

Issued at 9:55 pm CDT Thursday 27 November 2014 (issued every 10 minutes, with the page automatically refreshed every 10 minutes)

About weather observations | Map of Adelaide area stations | Latest observations for Adelaide area | Other Formats
Station Details ID: 023842 Name: MOUNT LOFTY Lat: -34.98 Lon: 138.71 Height: 685.0 m
Data from the previous 72 hours. | See also: Recent months at Mount Lofty
Date/Time
CDT
Tmp

°C
App
Tmp
°C
Dew
Point
°C
Rel
Hum
%
Delta-T

°C
Wind Press
QNH
hPa
Press
MSL
hPa
Rain
since
9 am
mm
Dir
 
Spd
km/h
Gust
km/h
Spd
kts
Gust
kts
27/09:30pm 9.7 7.1 7.6 87 1.0 E 11 15 6 8 - - 0.0
27/09:00pm 10.2 7.6 7.6 84 1.3 E 11 17 6 9 - - 0.0
27/08:30pm 11.2 8.5 7.3 77 1.9 E 11 17 6 9 - - 0.0
27/08:00pm 12.4 9.3 7.1 70 2.7 E 13 22 7 12 - - 0.0
27/07:30pm 13.9 10.8 7.2 64 3.4 ESE 13 20 7 11 - - 0.0
27/07:00pm 15.1 12.0 7.2 59 4.0 ESE 13 20 7 11 - - 0.0
27/06:30pm 16.2 13.1 7.2 55 4.6 ESE 13 20 7 11 - - 0.0
27/06:00pm 17.6 14.8 7.1 50 5.4 ESE 11 19 6 10 - - 0.0
27/05:30pm 18.8 16.6 7.9 49 5.8 SE 9 17 5 9 - - 0.0
27/05:00pm 19.6 17.1 8.3 48 6.1 ESE 11 17 6 9 - - 0.0
27/04:30pm 20.1 18.0 8.1 46 6.4 SE 9 22 5 12 - - 0.0
27/04:00pm 20.7 18.4 7.3 42 7.1 SE 9 19 5 10 - - 0.0
27/03:30pm 21.1 19.2 7.7 42 7.2 SSE 7 19 4 10 - - 0.0
27/03:00pm 21.2 19.3 7.4 41 7.4 SE 7 15 4 8 - - 0.0
27/02:30pm 21.6 19.9 8.5 43 7.1 SE 7 19 4 10 - - 0.0
27/02:00pm 21.1 19.2 9.0 46 6.6 ESE 9 19 5 10 - - 0.0
27/01:30pm 20.5 19.1 9.7 50 6.0 SE 7 15 4 8 - - 0.0
27/01:00pm 19.8 18.4 9.7 52 5.6 ESE 7 13 4 7 - - 0.0
27/12:30pm 19.0 17.3 9.8 55 5.1 E 9 19 5 10 - - 0.0
27/12:00pm 18.0 16.7 10.1 60 4.3 ESE 7 19 4 10 - - 0.0
27/11:30am 17.3 15.4 10.4 64 3.8 ESE 11 20 6 11 - - 0.0
27/11:00am 16.6 14.6 10.0 65 3.6 ESE 11 20 6 11 - - 0.0
27/10:30am 16.2 14.2 10.3 68 3.2 ESE 11 22 6 12 - - 0.0
27/10:00am 15.5 13.4 9.8 69 3.1 E 11 24 6 13 - - 0.0
27/09:30am 15.3 14.2 10.5 73 2.6 E 7 15 4 8 - - 0.0
27/09:00am 13.3 10.9 9.9 80 1.8 E 13 26 7 14 - - 0.0
27/08:30am 11.5 8.9 9.2 86 1.2 E 13 20 7 11 - - 0.0
27/08:00am 10.6 7.9 9.0 90 0.8 E 13 22 7 12 - - 0.0
27/07:30am 9.7 6.8 8.3 91 0.7 E 13 22 7 12 - - 0.0
27/07:00am 9.0 5.6 7.8 92 0.6 E 15 24 8 13 - - 0.0
27/06:30am 8.5 4.6 7.1 91 0.7 ESE 17 24 9 13 - - 0.0
27/06:00am 8.4 4.8 6.9 90 0.7 E 15 30 8 16 - - 0.0
27/05:30am 8.4 4.5 7.2 92 0.6 ESE 17 28 9 15 - - 0.0
27/05:00am 8.4 4.6 7.6 95 0.4 ESE 17 28 9 15 - - 0.0
27/04:30am 8.7 4.7 8.1 96 0.3 E 19 30 10 16 - - 0.0
27/04:00am 9.2 5.3 8.7 97 0.3 ESE 19 30 10 16 - - 0.0
27/03:30am 9.8 6.4 9.3 97 0.3 ESE 17 30 9 16 - - 0.0
27/03:00am 10.1 6.8 9.6 97 0.3 ESE 17 28 9 15 - - 0.0
27/02:30am 10.3 7.1 9.8 97 0.3 ESE 17 26 9 14 - - 0.0
27/02:00am 10.4 7.2 9.9 97 0.3 ESE 17 28 9 15 - - 0.0
27/01:30am 10.3 7.1 9.8 97 0.3 ESE 17 32 9 17 - - 0.0
27/01:00am 10.2 6.9 9.7 97 0.3 ESE 17 26 9 14 - - 0.0
27/12:30am 10.3 7.1 9.8 97 0.3 E 17 32 9 17 - - 0.0
27/12:00am 10.3 7.0 9.7 96 0.3 ESE 17 30 9 16 - - 0.0
 
Date/Time
CDT
Tmp

°C
App
Tmp
°C
Dew
Point
°C
Rel
Hum
%
Delta-T

°C
Wind Press
QNH
hPa
Press
MSL
hPa
Rain
since
9 am
mm
Dir
 
Spd
km/h
Gust
km/h
Spd
kts
Gust
kts
26/11:30pm 10.4 6.8 9.8 96 0.3 ESE 19 28 10 15 - - 0.0
26/11:00pm 10.3 6.6 9.5 95 0.4 ESE 19 32 10 17 - - 0.0
26/10:30pm 10.3 6.4 9.4 94 0.5 ESE 20 33 11 18 - - 0.0
26/10:00pm 10.5 6.6 9.4 93 0.6 ESE 20 30 11 16 - - 0.0
26/09:30pm 10.3 6.3 9.1 92 0.6 ESE 20 32 11 17 - - 0.0
26/09:00pm 10.4 6.3 8.8 90 0.8 ESE 20 32 11 17 - - 0.0
26/08:30pm 10.4 6.3 8.8 90 0.8 ESE 20 35 11 19 - - 0.0
26/08:00pm 10.6 7.0 8.4 86 1.1 ESE 17 30 9 16 - - 0.0
26/07:30pm 11.3 7.7 8.3 82 1.5 ESE 17 32 9 17 - - 0.0
26/07:00pm 12.4 8.8 8.3 76 2.1 ESE 17 30 9 16 - - 0.0
26/06:30pm 13.1 9.5 8.4 73 2.4 ESE 17 28 9 15 - - 0.0
26/06:00pm 14.0 10.5 8.6 70 2.8 ESE 17 30 9 16 - - 0.0
26/05:30pm 15.0 12.0 7.8 62 3.7 ESE 13 28 7 15 - - 0.0
26/05:00pm 16.0 13.5 8.0 59 4.2 ESE 11 24 6 13 - - 0.0
26/04:30pm 16.6 14.1 8.1 57 4.5 SE 11 28 6 15 - - 0.0
26/04:00pm 17.4 14.8 7.7 53 5.1 ESE 11 26 6 14 - - 0.0
26/03:30pm 18.9 17.5 8.8 52 5.4 ESE 6 15 3 8 - - 0.0
26/03:00pm 19.2 17.4 9.4 53 5.4 ESE 9 19 5 10 - - 0.0
26/02:30pm 18.4 16.7 8.4 52 5.3 SE 7 15 4 8 - - 0.0
26/02:00pm 18.5 16.8 7.6 49 5.7 SE 6 15 3 8 - - 0.0
26/01:30pm 17.7 16.1 6.3 47 5.8 SSE 4 11 2 6 - - 0.0
26/01:00pm 16.9 14.8 6.7 51 5.2 SE 7 11 4 6 - - 0.0
26/12:30pm 16.2 14.6 7.9 58 4.3 NE 6 11 3 6 - - 0.0
26/12:00pm 14.8 12.9 6.9 59 4.0 NE 6 13 3 7 - - 0.0
26/11:30am 13.5 11.6 6.8 64 3.4 ENE 6 9 3 5 - - 0.0
26/11:00am 13.1 11.1 6.2 63 3.4 E 6 13 3 7 - - 0.0
26/10:30am 12.8 11.0 7.3 69 2.8 ENE 6 13 3 7 - - 0.0
26/10:00am 11.9 10.1 7.0 72 2.4 E 6 13 3 7 - - 0.0
26/09:30am 11.6 10.4 7.9 78 1.9 SSE 4 11 2 6 - - 0.0
26/09:00am 10.9 8.7 7.8 81 1.6 ESE 9 19 5 10 - - 0.0
26/08:30am 9.7 6.9 7.1 84 1.3 ESE 11 24 6 13 - - 0.0
26/08:00am 9.3 6.2 7.4 88 0.9 ESE 13 19 7 10 - - 0.0
26/07:30am 9.2 6.2 7.5 89 0.8 E 13 20 7 11 - - 0.0
26/07:00am 8.0 5.6 6.9 93 0.5 ESE 9 19 5 10 - - 0.0
26/06:30am 7.4 4.5 6.5 94 0.4 ESE 11 17 6 9 - - 0.0
26/06:00am 7.2 4.3 6.3 94 0.4 E 11 17 6 9 - - 0.0
26/05:30am 7.1 4.4 5.7 91 0.7 ESE 9 15 5 8 - - 0.0
26/05:00am 7.2 4.9 5.8 91 0.7 ESE 7 13 4 7 - - 0.0
26/04:30am 7.1 5.0 5.7 91 0.7 ESE 6 9 3 5 - - 0.0
26/04:00am 6.9 4.6 5.5 91 0.6 ESE 7 13 4 7 - - 0.0
26/03:30am 7.0 4.7 5.6 91 0.7 ESE 7 11 4 6 - - 0.0
26/03:00am 7.0 4.7 5.6 91 0.7 ESE 7 13 4 7 - - 0.0
26/02:30am 7.3 5.1 6.1 92 0.6 ESE 7 15 4 8 - - 0.0
26/02:00am 7.4 5.2 6.2 92 0.6 ESE 7 15 4 8 - - 0.0
26/01:30am 7.4 5.2 6.2 92 0.6 ESE 7 11 4 6 - - 0.0
26/01:00am 7.6 5.1 6.4 92 0.6 ESE 9 15 5 8 - - 0.0
26/12:30am 7.7 5.2 6.5 92 0.6 ESE 9 15 5 8 - - 0.0
26/12:00am 7.8 5.4 6.9 94 0.4 ESE 9 13 5 7 - - 0.0
 
Date/Time
CDT
Tmp

°C
App
Tmp
°C
Dew
Point
°C
Rel
Hum
%
Delta-T

°C
Wind Press
QNH
hPa
Press
MSL
hPa
Rain
since
9 am
mm
Dir
 
Spd
km/h
Gust
km/h
Spd
kts
Gust
kts
25/11:30pm 7.8 5.3 6.7 93 0.5 ESE 9 17 5 9 - - 0.0
25/11:00pm 7.9 5.5 6.8 93 0.5 ESE 9 15 5 8 - - 0.0
25/10:30pm 8.2 6.2 7.0 92 0.6 ESE 7 13 4 7 - - 0.0
25/10:00pm 8.3 5.9 6.9 91 0.7 ESE 9 17 5 9 - - 0.0
25/09:30pm 8.6 6.2 6.9 89 0.8 ESE 9 17 5 9 - - 0.0
25/09:00pm 9.1 7.0 6.7 85 1.2 ESE 7 13 4 7 - - 0.0
25/08:30pm 9.6 7.7 6.9 83 1.3 SE 6 11 3 6 - - 0.0
25/08:00pm 10.4 8.7 7.5 82 1.4 SE 6 11 3 6 - - 0.0
25/07:30pm 11.6 10.3 7.7 77 2.0 ESE 4 9 2 5 - - 0.0
25/07:00pm 13.0 10.9 5.7 61 3.6 SSW 6 17 3 9 - - 0.0
25/06:30pm 13.3 10.9 5.2 58 3.9 SW 7 13 4 7 - - 0.0
25/06:00pm 14.3 11.9 5.4 55 4.4 W 7 11 4 6 - - 0.0
25/05:30pm 14.8 12.4 5.1 52 4.7 WSW 7 17 4 9 - - 0.0
25/05:00pm 16.1 14.3 5.4 49 5.3 WSW 4 7 2 4 - - 0.0
25/04:30pm 15.8 13.6 5.4 50 5.1 W 6 15 3 8 - - 0.0
25/04:00pm 14.7 12.3 4.4 50 5.0 W 6 13 3 7 - - 0.0
25/03:30pm 15.1 12.2 4.8 50 5.0 W 9 17 5 9 - - 0.0
25/03:00pm 14.9 11.9 4.3 49 5.1 W 9 24 5 13 - - 0.0
25/02:30pm 14.4 11.3 3.8 49 5.0 WNW 9 20 5 11 - - 0.0
25/02:00pm 14.3 11.6 5.7 56 4.2 W 9 15 5 8 - - 0.0
25/01:30pm 14.5 11.7 5.3 54 4.5 W 9 20 5 11 - - 0.0
25/01:00pm 12.8 10.1 5.5 61 3.5 SW 9 20 5 11 - - 0.0
25/12:30pm 12.7 9.8 6.3 65 3.2 WNW 11 20 6 11 - - 0.0
25/12:00pm 13.6 11.6 7.2 65 3.2 W 7 17 4 9 - - 0.0
25/11:30am 12.5 10.5 7.0 69 2.8 W 7 15 4 8 - - 0.0
25/11:00am 11.6 9.2 5.3 65 3.0 W 7 13 4 7 - - 0.0
25/10:30am 12.9 11.0 6.9 67 3.0 WNW 6 15 3 8 - - 0.0
25/10:00am 11.4 9.2 5.3 66 2.9 W 6 11 3 6 - - 0.0
25/09:30am 10.9 8.6 5.0 67 2.8 W 6 13 3 7 - - 0.0
25/09:00am 10.9 8.7 5.4 69 2.6 WSW 6 13 3 7 - - 0.0
25/08:30am 10.8 8.7 5.8 71 2.4 WSW 6 9 3 5 - - 0.0
25/08:00am 9.6 7.3 4.8 72 2.2 SSW 6 11 3 6 - - 0.0
25/07:30am 8.8 7.0 7.1 89 0.8 SSW 6 11 3 6 - - 0.0
25/07:00am 8.1 6.2 6.9 92 0.6 SSW 6 9 3 5 - - 0.0
25/06:30am 7.8 5.9 6.9 94 0.4 SW 6 9 3 5 - - 0.0
25/06:00am 7.4 5.5 6.5 94 0.4 SW 6 9 3 5 - - 0.0
25/05:30am 7.2 5.6 6.3 94 0.4 SW 4 9 2 5 - - 0.0
25/05:00am 7.4 5.3 6.5 94 0.4 SW 7 13 4 7 - - 0.0
25/04:30am 7.5 5.3 6.4 93 0.5 SW 7 17 4 9 - - 0.0
25/04:00am 7.3 5.3 6.2 93 0.5 WSW 6 13 3 7 - - 0.0
25/03:30am 7.2 5.1 6.0 92 0.6 SW 6 13 3 7 - - 0.0
25/03:00am 7.4 5.3 5.9 90 0.7 SSW 6 13 3 7 - - 0.0
25/02:30am 7.6 5.5 5.7 88 0.9 S 6 11 3 6 - - 0.0
25/02:00am 7.7 5.0 5.7 87 0.9 SSW 9 17 5 9 - - 0.0
25/01:30am 8.0 5.8 6.0 87 0.9 SSW 7 19 4 10 - - 0.0
25/01:00am 8.2 5.6 6.0 86 1.0 SSW 9 19 5 10 - - 0.0
25/12:30am 8.0 5.4 6.0 87 0.9 SSW 9 19 5 10 - - 0.0
25/12:00am 8.1 5.4 5.7 85 1.1 SSW 9 20 5 11 - - 0.0
 
Date/Time
CDT
Tmp

°C
App
Tmp
°C
Dew
Point
°C
Rel
Hum
%
Delta-T

°C
Wind Press
QNH
hPa
Press
MSL
hPa
Rain
since
9 am
mm
Dir
 
Spd
km/h
Gust
km/h
Spd
kts
Gust
kts
24/11:30pm 8.2 5.0 5.3 82 1.4 SSW 11 20 6 11 - - 0.0
24/11:00pm 8.1 5.7 5.2 82 1.3 SW 7 15 4 8 - - 0.0
24/10:30pm 8.5 5.3 5.3 80 1.5 SW 11 22 6 12 - - 0.0
24/10:00pm 8.6 6.3 5.5 81 1.5 SW 7 13 4 7 - - 0.0

Latest Capital City Observations: Canberra | Sydney | Melbourne | Brisbane | Adelaide | Perth | Hobart | Darwin

Other Formats:

Comma delimited format used in spreadsheet applications
http://www.bom.gov.au/fwo/IDS60901/IDS60901.95678.axf

JavaScript Object Notation format (JSON) in row-major order
http://www.bom.gov.au/fwo/IDS60901/IDS60901.95678.json